sensor_id;sensor_type;location;lat;lon;timestamp;P1;durP1;ratioP1;P2;durP2;ratioP2
10246;SDS011;5168;47.854;7.944;2023-08-12T00:00:56;1.73;;;1.63;;
10246;SDS011;5168;47.854;7.944;2023-08-12T00:03:22;1.60;;;1.50;;
10246;SDS011;5168;47.854;7.944;2023-08-12T00:05:47;1.83;;;1.73;;
10246;SDS011;5168;47.854;7.944;2023-08-12T00:08:13;1.80;;;1.70;;
10246;SDS011;5168;47.854;7.944;2023-08-12T00:10:39;2.00;;;1.80;;
10246;SDS011;5168;47.854;7.944;2023-08-12T00:13:04;1.80;;;1.70;;
10246;SDS011;5168;47.854;7.944;2023-08-12T00:15:30;1.57;;;1.43;;
10246;SDS011;5168;47.854;7.944;2023-08-12T00:17:55;1.97;;;1.60;;
10246;SDS011;5168;47.854;7.944;2023-08-12T00:20:21;1.70;;;1.60;;
10246;SDS011;5168;47.854;7.944;2023-08-12T00:22:46;1.70;;;1.60;;
10246;SDS011;5168;47.854;7.944;2023-08-12T00:25:12;2.93;;;1.50;;
10246;SDS011;5168;47.854;7.944;2023-08-12T00:27:38;1.70;;;1.60;;
10246;SDS011;5168;47.854;7.944;2023-08-12T00:30:04;1.93;;;1.73;;
10246;SDS011;5168;47.854;7.944;2023-08-12T00:32:30;2.30;;;1.70;;
10246;SDS011;5168;47.854;7.944;2023-08-12T00:34:56;1.63;;;1.53;;
10246;SDS011;5168;47.854;7.944;2023-08-12T00:37:21;1.50;;;1.40;;
10246;SDS011;5168;47.854;7.944;2023-08-12T00:39:47;1.77;;;1.60;;
10246;SDS011;5168;47.854;7.944;2023-08-12T00:42:13;1.77;;;1.67;;
10246;SDS011;5168;47.854;7.944;2023-08-12T00:44:39;1.70;;;1.60;;
10246;SDS011;5168;47.854;7.944;2023-08-12T00:47:05;1.63;;;1.53;;
10246;SDS011;5168;47.854;7.944;2023-08-12T00:49:31;1.77;;;1.67;;
10246;SDS011;5168;47.854;7.944;2023-08-12T00:51:58;1.90;;;1.70;;
10246;SDS011;5168;47.854;7.944;2023-08-12T00:54:25;1.50;;;1.40;;
10246;SDS011;5168;47.854;7.944;2023-08-12T00:56:51;1.70;;;1.60;;
10246;SDS011;5168;47.854;7.944;2023-08-12T00:59:18;2.63;;;1.40;;
10246;SDS011;5168;47.854;7.944;2023-08-12T01:01:45;1.73;;;1.63;;
10246;SDS011;5168;47.854;7.944;2023-08-12T01:04:12;1.57;;;1.47;;
10246;SDS011;5168;47.854;7.944;2023-08-12T01:06:38;2.10;;;1.67;;
10246;SDS011;5168;47.854;7.944;2023-08-12T01:09:04;1.60;;;1.50;;
10246;SDS011;5168;47.854;7.944;2023-08-12T01:14:33;1.80;;;1.70;;
10246;SDS011;5168;47.854;7.944;2023-08-12T01:17:08;1.60;;;1.50;;
10246;SDS011;5168;47.854;7.944;2023-08-12T01:19:37;2.00;;;1.70;;
10246;SDS011;5168;47.854;7.944;2023-08-12T01:22:04;3.00;;;1.40;;
10246;SDS011;5168;47.854;7.944;2023-08-12T01:24:36;1.83;;;1.60;;
10246;SDS011;5168;47.854;7.944;2023-08-12T01:27:08;1.60;;;1.50;;
10246;SDS011;5168;47.854;7.944;2023-08-12T01:29:40;1.50;;;1.40;;
10246;SDS011;5168;47.854;7.944;2023-08-12T01:35:16;2.13;;;1.70;;
10246;SDS011;5168;47.854;7.944;2023-08-12T01:37:49;1.83;;;1.73;;
10246;SDS011;5168;47.854;7.944;2023-08-12T01:40:16;2.77;;;2.00;;
10246;SDS011;5168;47.854;7.944;2023-08-12T01:42:44;1.60;;;1.50;;
10246;SDS011;5168;47.854;7.944;2023-08-12T01:45:10;1.70;;;1.60;;
10246;SDS011;5168;47.854;7.944;2023-08-12T01:47:36;2.23;;;1.80;;
10246;SDS011;5168;47.854;7.944;2023-08-12T01:50:02;2.30;;;2.03;;
10246;SDS011;5168;47.854;7.944;2023-08-12T01:52:28;4.30;;;2.10;;
10246;SDS011;5168;47.854;7.944;2023-08-12T01:54:54;2.13;;;1.80;;
10246;SDS011;5168;47.854;7.944;2023-08-12T01:57:20;1.87;;;1.70;;
10246;SDS011;5168;47.854;7.944;2023-08-12T01:59:46;2.00;;;1.77;;
10246;SDS011;5168;47.854;7.944;2023-08-12T02:02:12;1.80;;;1.53;;
10246;SDS011;5168;47.854;7.944;2023-08-12T02:04:38;1.83;;;1.70;;
10246;SDS011;5168;47.854;7.944;2023-08-12T02:07:05;1.70;;;1.60;;
10246;SDS011;5168;47.854;7.944;2023-08-12T02:09:31;1.83;;;1.70;;
10246;SDS011;5168;47.854;7.944;2023-08-12T02:11:59;1.90;;;1.70;;
10246;SDS011;5168;47.854;7.944;2023-08-12T02:14:25;1.67;;;1.57;;
10246;SDS011;5168;47.854;7.944;2023-08-12T02:16:51;1.57;;;1.47;;
10246;SDS011;5168;47.854;7.944;2023-08-12T02:19:16;1.83;;;1.70;;
10246;SDS011;5168;47.854;7.944;2023-08-12T02:21:42;1.93;;;1.70;;
10246;SDS011;5168;47.854;7.944;2023-08-12T02:24:08;2.10;;;1.50;;
10246;SDS011;5168;47.854;7.944;2023-08-12T02:26:34;1.90;;;1.63;;
10246;SDS011;5168;47.854;7.944;2023-08-12T02:29:00;2.03;;;1.77;;
10246;SDS011;5168;47.854;7.944;2023-08-12T02:31:26;1.83;;;1.70;;
10246;SDS011;5168;47.854;7.944;2023-08-12T02:33:51;3.17;;;2.10;;
10246;SDS011;5168;47.854;7.944;2023-08-12T02:36:17;1.80;;;1.60;;
10246;SDS011;5168;47.854;7.944;2023-08-12T02:38:43;2.20;;;1.90;;
10246;SDS011;5168;47.854;7.944;2023-08-12T02:41:08;2.10;;;1.90;;
10246;SDS011;5168;47.854;7.944;2023-08-12T02:43:34;2.33;;;1.90;;
10246;SDS011;5168;47.854;7.944;2023-08-12T02:46:00;2.70;;;1.70;;
10246;SDS011;5168;47.854;7.944;2023-08-12T02:48:26;2.07;;;1.87;;
10246;SDS011;5168;47.854;7.944;2023-08-12T02:50:52;1.90;;;1.80;;
10246;SDS011;5168;47.854;7.944;2023-08-12T02:53:18;1.80;;;1.70;;
10246;SDS011;5168;47.854;7.944;2023-08-12T02:55:46;1.70;;;1.60;;
10246;SDS011;5168;47.854;7.944;2023-08-12T02:58:11;2.23;;;1.80;;
10246;SDS011;5168;47.854;7.944;2023-08-12T03:00:40;1.87;;;1.70;;
10246;SDS011;5168;47.854;7.944;2023-08-12T03:03:06;1.80;;;1.70;;
10246;SDS011;5168;47.854;7.944;2023-08-12T03:05:32;1.87;;;1.70;;
10246;SDS011;5168;47.854;7.944;2023-08-12T03:07:57;1.57;;;1.47;;
10246;SDS011;5168;47.854;7.944;2023-08-12T03:10:29;2.03;;;1.83;;
10246;SDS011;5168;47.854;7.944;2023-08-12T03:12:56;2.00;;;1.80;;
10246;SDS011;5168;47.854;7.944;2023-08-12T03:15:21;2.10;;;1.70;;
10246;SDS011;5168;47.854;7.944;2023-08-12T03:17:47;3.20;;;1.90;;
10246;SDS011;5168;47.854;7.944;2023-08-12T03:20:12;1.80;;;1.70;;
10246;SDS011;5168;47.854;7.944;2023-08-12T03:22:38;2.17;;;1.70;;
10246;SDS011;5168;47.854;7.944;2023-08-12T03:25:04;2.00;;;1.80;;
10246;SDS011;5168;47.854;7.944;2023-08-12T03:27:31;2.27;;;1.70;;
10246;SDS011;5168;47.854;7.944;2023-08-12T03:29:56;2.00;;;1.90;;
10246;SDS011;5168;47.854;7.944;2023-08-12T03:32:24;1.87;;;1.77;;
10246;SDS011;5168;47.854;7.944;2023-08-12T03:34:50;2.27;;;1.70;;
10246;SDS011;5168;47.854;7.944;2023-08-12T03:37:16;2.00;;;1.80;;
10246;SDS011;5168;47.854;7.944;2023-08-12T03:39:42;2.40;;;1.87;;
10246;SDS011;5168;47.854;7.944;2023-08-12T03:42:08;2.13;;;1.93;;
10246;SDS011;5168;47.854;7.944;2023-08-12T03:44:34;2.43;;;1.80;;
10246;SDS011;5168;47.854;7.944;2023-08-12T03:47:00;3.33;;;1.77;;
10246;SDS011;5168;47.854;7.944;2023-08-12T03:49:25;1.80;;;1.70;;
10246;SDS011;5168;47.854;7.944;2023-08-12T03:51:51;1.70;;;1.60;;
10246;SDS011;5168;47.854;7.944;2023-08-12T03:54:18;1.80;;;1.60;;
10246;SDS011;5168;47.854;7.944;2023-08-12T03:56:43;2.00;;;1.80;;
10246;SDS011;5168;47.854;7.944;2023-08-12T03:59:10;3.07;;;1.87;;
10246;SDS011;5168;47.854;7.944;2023-08-12T04:01:36;1.80;;;1.70;;
10246;SDS011;5168;47.854;7.944;2023-08-12T04:04:02;1.93;;;1.70;;
10246;SDS011;5168;47.854;7.944;2023-08-12T04:06:27;2.20;;;1.90;;
10246;SDS011;5168;47.854;7.944;2023-08-12T04:08:53;1.70;;;1.60;;
10246;SDS011;5168;47.854;7.944;2023-08-12T04:11:19;3.10;;;1.80;;
10246;SDS011;5168;47.854;7.944;2023-08-12T04:13:44;2.20;;;2.00;;
10246;SDS011;5168;47.854;7.944;2023-08-12T04:16:10;1.87;;;1.77;;
10246;SDS011;5168;47.854;7.944;2023-08-12T04:18:36;1.90;;;1.80;;
10246;SDS011;5168;47.854;7.944;2023-08-12T04:21:02;2.13;;;1.87;;
10246;SDS011;5168;47.854;7.944;2023-08-12T04:23:27;1.90;;;1.70;;
10246;SDS011;5168;47.854;7.944;2023-08-12T04:25:53;2.10;;;1.90;;
10246;SDS011;5168;47.854;7.944;2023-08-12T04:28:19;1.90;;;1.80;;
10246;SDS011;5168;47.854;7.944;2023-08-12T04:30:45;2.33;;;2.00;;
10246;SDS011;5168;47.854;7.944;2023-08-12T04:33:12;2.10;;;1.90;;
10246;SDS011;5168;47.854;7.944;2023-08-12T04:35:38;2.10;;;1.90;;
10246;SDS011;5168;47.854;7.944;2023-08-12T04:38:05;2.30;;;2.00;;
10246;SDS011;5168;47.854;7.944;2023-08-12T04:40:31;2.30;;;1.80;;
10246;SDS011;5168;47.854;7.944;2023-08-12T04:42:57;1.60;;;1.50;;
10246;SDS011;5168;47.854;7.944;2023-08-12T04:45:25;2.03;;;1.83;;
10246;SDS011;5168;47.854;7.944;2023-08-12T04:47:51;2.07;;;1.80;;
10246;SDS011;5168;47.854;7.944;2023-08-12T04:50:17;1.87;;;1.77;;
10246;SDS011;5168;47.854;7.944;2023-08-12T04:52:42;2.70;;;2.10;;
10246;SDS011;5168;47.854;7.944;2023-08-12T04:55:08;3.40;;;1.80;;
10246;SDS011;5168;47.854;7.944;2023-08-12T04:57:35;2.13;;;1.93;;
10246;SDS011;5168;47.854;7.944;2023-08-12T05:00:05;2.10;;;1.90;;
10246;SDS011;5168;47.854;7.944;2023-08-12T05:02:36;2.60;;;2.20;;
10246;SDS011;5168;47.854;7.944;2023-08-12T05:05:01;2.30;;;2.10;;
10246;SDS011;5168;47.854;7.944;2023-08-12T05:07:27;2.20;;;1.80;;
10246;SDS011;5168;47.854;7.944;2023-08-12T05:09:53;2.27;;;2.07;;
10246;SDS011;5168;47.854;7.944;2023-08-12T05:12:18;1.90;;;1.70;;
10246;SDS011;5168;47.854;7.944;2023-08-12T05:14:44;1.90;;;1.77;;
10246;SDS011;5168;47.854;7.944;2023-08-12T05:17:10;1.80;;;1.70;;
10246;SDS011;5168;47.854;7.944;2023-08-12T05:19:36;2.30;;;2.10;;
10246;SDS011;5168;47.854;7.944;2023-08-12T05:22:02;1.90;;;1.70;;
10246;SDS011;5168;47.854;7.944;2023-08-12T05:24:28;2.47;;;1.83;;
10246;SDS011;5168;47.854;7.944;2023-08-12T05:26:54;2.50;;;1.90;;
10246;SDS011;5168;47.854;7.944;2023-08-12T05:29:19;2.23;;;2.03;;
10246;SDS011;5168;47.854;7.944;2023-08-12T05:31:45;2.10;;;1.90;;
10246;SDS011;5168;47.854;7.944;2023-08-12T05:34:10;2.23;;;2.03;;
10246;SDS011;5168;47.854;7.944;2023-08-12T05:36:39;2.23;;;2.03;;
10246;SDS011;5168;47.854;7.944;2023-08-12T05:39:04;2.00;;;1.90;;
10246;SDS011;5168;47.854;7.944;2023-08-12T05:41:30;2.07;;;1.83;;
10246;SDS011;5168;47.854;7.944;2023-08-12T05:43:55;2.67;;;2.37;;
10246;SDS011;5168;47.854;7.944;2023-08-12T05:46:21;2.53;;;2.17;;
10246;SDS011;5168;47.854;7.944;2023-08-12T05:48:46;2.60;;;2.20;;
10246;SDS011;5168;47.854;7.944;2023-08-12T05:51:12;3.27;;;2.00;;
10246;SDS011;5168;47.854;7.944;2023-08-12T05:53:38;2.20;;;2.00;;
10246;SDS011;5168;47.854;7.944;2023-08-12T05:56:04;3.67;;;2.17;;
10246;SDS011;5168;47.854;7.944;2023-08-12T05:58:30;1.80;;;1.70;;
10246;SDS011;5168;47.854;7.944;2023-08-12T06:00:55;2.07;;;1.83;;
10246;SDS011;5168;47.854;7.944;2023-08-12T06:03:21;2.80;;;1.80;;
10246;SDS011;5168;47.854;7.944;2023-08-12T06:05:47;2.00;;;1.80;;
10246;SDS011;5168;47.854;7.944;2023-08-12T06:08:14;2.00;;;1.80;;
10246;SDS011;5168;47.854;7.944;2023-08-12T06:10:40;1.97;;;1.77;;
10246;SDS011;5168;47.854;7.944;2023-08-12T06:13:05;2.10;;;1.90;;
10246;SDS011;5168;47.854;7.944;2023-08-12T06:15:31;2.00;;;1.90;;
10246;SDS011;5168;47.854;7.944;2023-08-12T06:17:58;2.43;;;1.80;;
10246;SDS011;5168;47.854;7.944;2023-08-12T06:20:24;1.83;;;1.70;;
10246;SDS011;5168;47.854;7.944;2023-08-12T06:22:50;2.17;;;1.97;;
10246;SDS011;5168;47.854;7.944;2023-08-12T06:25:16;2.20;;;1.90;;
10246;SDS011;5168;47.854;7.944;2023-08-12T06:27:42;2.07;;;1.77;;
10246;SDS011;5168;47.854;7.944;2023-08-12T06:30:08;2.70;;;2.13;;
10246;SDS011;5168;47.854;7.944;2023-08-12T06:32:35;2.40;;;2.00;;
10246;SDS011;5168;47.854;7.944;2023-08-12T06:35:00;3.17;;;2.10;;
10246;SDS011;5168;47.854;7.944;2023-08-12T06:37:26;2.17;;;1.98;;
10246;SDS011;5168;47.854;7.944;2023-08-12T06:39:52;2.30;;;2.10;;
10246;SDS011;5168;47.854;7.944;2023-08-12T06:42:18;2.75;;;2.10;;
10246;SDS011;5168;47.854;7.944;2023-08-12T06:44:44;2.00;;;1.90;;
10246;SDS011;5168;47.854;7.944;2023-08-12T06:47:10;2.80;;;2.10;;
10246;SDS011;5168;47.854;7.944;2023-08-12T06:49:35;2.10;;;1.95;;
10246;SDS011;5168;47.854;7.944;2023-08-12T06:52:01;2.08;;;1.83;;
10246;SDS011;5168;47.854;7.944;2023-08-12T06:54:27;2.15;;;1.95;;
10246;SDS011;5168;47.854;7.944;2023-08-12T06:56:52;2.05;;;1.88;;
10246;SDS011;5168;47.854;7.944;2023-08-12T06:59:18;2.20;;;2.00;;
10246;SDS011;5168;47.854;7.944;2023-08-12T07:01:43;2.20;;;1.95;;
10246;SDS011;5168;47.854;7.944;2023-08-12T07:04:09;2.30;;;2.00;;
10246;SDS011;5168;47.854;7.944;2023-08-12T07:06:38;2.13;;;1.80;;
10246;SDS011;5168;47.854;7.944;2023-08-12T07:09:03;2.17;;;1.77;;
10246;SDS011;5168;47.854;7.944;2023-08-12T07:11:29;2.63;;;2.00;;
10246;SDS011;5168;47.854;7.944;2023-08-12T07:13:55;2.00;;;1.80;;
10246;SDS011;5168;47.854;7.944;2023-08-12T07:16:20;2.95;;;1.98;;
10246;SDS011;5168;47.854;7.944;2023-08-12T07:18:46;4.82;;;2.03;;
10246;SDS011;5168;47.854;7.944;2023-08-12T07:21:11;2.65;;;2.05;;
10246;SDS011;5168;47.854;7.944;2023-08-12T07:23:37;2.20;;;2.00;;
10246;SDS011;5168;47.854;7.944;2023-08-12T07:26:03;2.25;;;2.00;;
10246;SDS011;5168;47.854;7.944;2023-08-12T07:28:28;2.03;;;1.83;;
10246;SDS011;5168;47.854;7.944;2023-08-12T07:31:00;3.20;;;2.25;;
10246;SDS011;5168;47.854;7.944;2023-08-12T07:33:26;2.28;;;2.08;;
10246;SDS011;5168;47.854;7.944;2023-08-12T07:35:51;3.72;;;2.13;;
10246;SDS011;5168;47.854;7.944;2023-08-12T07:38:17;2.22;;;1.90;;
10246;SDS011;5168;47.854;7.944;2023-08-12T07:40:43;2.90;;;2.13;;
10246;SDS011;5168;47.854;7.944;2023-08-12T07:43:09;2.25;;;1.80;;
10246;SDS011;5168;47.854;7.944;2023-08-12T07:45:35;1.73;;;1.60;;
10246;SDS011;5168;47.854;7.944;2023-08-12T07:48:00;3.08;;;1.95;;
10246;SDS011;5168;47.854;7.944;2023-08-12T07:50:26;3.60;;;2.13;;
10246;SDS011;5168;47.854;7.944;2023-08-12T07:52:52;2.47;;;2.08;;
10246;SDS011;5168;47.854;7.944;2023-08-12T07:55:18;2.97;;;2.22;;
10246;SDS011;5168;47.854;7.944;2023-08-12T07:57:44;6.47;;;2.33;;
10246;SDS011;5168;47.854;7.944;2023-08-12T08:00:10;6.53;;;2.28;;
10246;SDS011;5168;47.854;7.944;2023-08-12T08:02:37;2.60;;;2.35;;
10246;SDS011;5168;47.854;7.944;2023-08-12T08:05:03;2.72;;;2.20;;
10246;SDS011;5168;47.854;7.944;2023-08-12T08:07:29;3.78;;;2.17;;
10246;SDS011;5168;47.854;7.944;2023-08-12T08:09:54;2.42;;;2.22;;
10246;SDS011;5168;47.854;7.944;2023-08-12T08:12:20;2.78;;;2.50;;
10246;SDS011;5168;47.854;7.944;2023-08-12T08:14:46;2.50;;;2.30;;
10246;SDS011;5168;47.854;7.944;2023-08-12T08:17:12;3.45;;;2.35;;
10246;SDS011;5168;47.854;7.944;2023-08-12T08:19:38;3.67;;;2.17;;
10246;SDS011;5168;47.854;7.944;2023-08-12T08:22:04;3.17;;;2.42;;
10246;SDS011;5168;47.854;7.944;2023-08-12T08:24:30;2.63;;;2.40;;
10246;SDS011;5168;47.854;7.944;2023-08-12T08:26:55;2.42;;;2.22;;
10246;SDS011;5168;47.854;7.944;2023-08-12T08:29:21;5.22;;;2.17;;
10246;SDS011;5168;47.854;7.944;2023-08-12T08:31:48;2.50;;;2.10;;
10246;SDS011;5168;47.854;7.944;2023-08-12T08:34:14;2.40;;;2.20;;
10246;SDS011;5168;47.854;7.944;2023-08-12T08:36:40;3.58;;;2.60;;
10246;SDS011;5168;47.854;7.944;2023-08-12T08:39:05;2.20;;;2.00;;
10246;SDS011;5168;47.854;7.944;2023-08-12T08:41:31;2.63;;;2.42;;
10246;SDS011;5168;47.854;7.944;2023-08-12T08:44:01;3.00;;;2.70;;
10246;SDS011;5168;47.854;7.944;2023-08-12T08:46:30;2.50;;;2.20;;
10246;SDS011;5168;47.854;7.944;2023-08-12T08:48:58;4.68;;;3.00;;
10246;SDS011;5168;47.854;7.944;2023-08-12T08:51:30;4.18;;;2.60;;
10246;SDS011;5168;47.854;7.944;2023-08-12T08:53:57;2.60;;;2.40;;
10246;SDS011;5168;47.854;7.944;2023-08-12T08:56:23;3.63;;;2.70;;
10246;SDS011;5168;47.854;7.944;2023-08-12T08:58:49;3.17;;;2.80;;
10246;SDS011;5168;47.854;7.944;2023-08-12T09:01:15;3.60;;;2.63;;
10246;SDS011;5168;47.854;7.944;2023-08-12T09:03:45;2.97;;;2.60;;
10246;SDS011;5168;47.854;7.944;2023-08-12T09:06:11;3.03;;;2.72;;
10246;SDS011;5168;47.854;7.944;2023-08-12T09:08:37;3.43;;;2.70;;
10246;SDS011;5168;47.854;7.944;2023-08-12T09:11:08;2.70;;;2.43;;
10246;SDS011;5168;47.854;7.944;2023-08-12T09:13:34;2.80;;;2.50;;
10246;SDS011;5168;47.854;7.944;2023-08-12T09:16:00;2.95;;;2.65;;
10246;SDS011;5168;47.854;7.944;2023-08-12T09:18:25;3.73;;;3.07;;
10246;SDS011;5168;47.854;7.944;2023-08-12T09:20:51;4.37;;;2.80;;
10246;SDS011;5168;47.854;7.944;2023-08-12T09:23:18;4.70;;;2.90;;
10246;SDS011;5168;47.854;7.944;2023-08-12T09:25:45;11.00;;;4.40;;
10246;SDS011;5168;47.854;7.944;2023-08-12T09:28:11;11.80;;;4.90;;
10246;SDS011;5168;47.854;7.944;2023-08-12T09:30:37;8.13;;;4.20;;
10246;SDS011;5168;47.854;7.944;2023-08-12T09:33:05;3.67;;;2.80;;
10246;SDS011;5168;47.854;7.944;2023-08-12T09:35:36;5.33;;;2.70;;
10246;SDS011;5168;47.854;7.944;2023-08-12T09:38:03;4.57;;;2.80;;
10246;SDS011;5168;47.854;7.944;2023-08-12T09:40:31;4.10;;;3.00;;
10246;SDS011;5168;47.854;7.944;2023-08-12T09:42:57;5.13;;;3.17;;
10246;SDS011;5168;47.854;7.944;2023-08-12T09:45:24;5.90;;;2.80;;
10246;SDS011;5168;47.854;7.944;2023-08-12T09:47:51;3.00;;;2.60;;
10246;SDS011;5168;47.854;7.944;2023-08-12T09:50:17;3.28;;;2.88;;
10246;SDS011;5168;47.854;7.944;2023-08-12T09:52:45;3.42;;;2.67;;
10246;SDS011;5168;47.854;7.944;2023-08-12T09:55:15;3.17;;;2.53;;
10246;SDS011;5168;47.854;7.944;2023-08-12T09:57:42;5.43;;;2.83;;
10246;SDS011;5168;47.854;7.944;2023-08-12T10:00:09;4.25;;;3.08;;
10246;SDS011;5168;47.854;7.944;2023-08-12T10:02:43;4.15;;;2.92;;
10246;SDS011;5168;47.854;7.944;2023-08-12T10:05:11;3.22;;;2.83;;
10246;SDS011;5168;47.854;7.944;2023-08-12T10:07:41;4.38;;;2.58;;
10246;SDS011;5168;47.854;7.944;2023-08-12T10:10:08;3.28;;;2.60;;
10246;SDS011;5168;47.854;7.944;2023-08-12T10:12:34;2.72;;;2.30;;
10246;SDS011;5168;47.854;7.944;2023-08-12T10:15:02;2.45;;;2.13;;
10246;SDS011;5168;47.854;7.944;2023-08-12T10:17:29;3.22;;;2.53;;
10246;SDS011;5168;47.854;7.944;2023-08-12T10:19:58;3.95;;;2.35;;
10246;SDS011;5168;47.854;7.944;2023-08-12T10:22:27;2.85;;;2.30;;
10246;SDS011;5168;47.854;7.944;2023-08-12T10:24:54;6.43;;;2.45;;
10246;SDS011;5168;47.854;7.944;2023-08-12T10:27:23;3.47;;;2.42;;
10246;SDS011;5168;47.854;7.944;2023-08-12T10:29:50;4.05;;;2.30;;
10246;SDS011;5168;47.854;7.944;2023-08-12T10:32:15;3.10;;;2.50;;
10246;SDS011;5168;47.854;7.944;2023-08-12T10:34:41;3.00;;;2.20;;
10246;SDS011;5168;47.854;7.944;2023-08-12T10:37:08;2.55;;;2.20;;
10246;SDS011;5168;47.854;7.944;2023-08-12T10:39:35;2.42;;;2.08;;
10246;SDS011;5168;47.854;7.944;2023-08-12T10:42:02;2.50;;;2.05;;
10246;SDS011;5168;47.854;7.944;2023-08-12T10:44:49;3.75;;;2.40;;
10246;SDS011;5168;47.854;7.944;2023-08-12T10:47:16;2.33;;;2.13;;
10246;SDS011;5168;47.854;7.944;2023-08-12T10:49:48;2.95;;;2.40;;
10246;SDS011;5168;47.854;7.944;2023-08-12T10:57:48;2.70;;;2.40;;
10246;SDS011;5168;47.854;7.944;2023-08-12T11:00:19;4.97;;;2.33;;
10246;SDS011;5168;47.854;7.944;2023-08-12T11:02:49;4.45;;;2.60;;
10246;SDS011;5168;47.854;7.944;2023-08-12T11:05:16;5.25;;;2.45;;
10246;SDS011;5168;47.854;7.944;2023-08-12T11:08:02;3.42;;;2.40;;
10246;SDS011;5168;47.854;7.944;2023-08-12T11:10:31;3.65;;;2.33;;
10246;SDS011;5168;47.854;7.944;2023-08-12T11:12:58;3.50;;;2.53;;
10246;SDS011;5168;47.854;7.944;2023-08-12T11:18:03;2.70;;;2.40;;
10246;SDS011;5168;47.854;7.944;2023-08-12T11:23:53;3.17;;;2.20;;
10246;SDS011;5168;47.854;7.944;2023-08-12T11:26:20;3.65;;;2.47;;
10246;SDS011;5168;47.854;7.944;2023-08-12T11:28:50;3.55;;;2.55;;
10246;SDS011;5168;47.854;7.944;2023-08-12T11:34:37;3.10;;;2.20;;
10246;SDS011;5168;47.854;7.944;2023-08-12T11:37:04;4.38;;;2.50;;
10246;SDS011;5168;47.854;7.944;2023-08-12T11:39:30;2.83;;;2.50;;
10246;SDS011;5168;47.854;7.944;2023-08-12T11:41:56;5.57;;;2.50;;
10246;SDS011;5168;47.854;7.944;2023-08-12T11:44:23;3.30;;;2.40;;
10246;SDS011;5168;47.854;7.944;2023-08-12T11:46:49;2.72;;;2.30;;
10246;SDS011;5168;47.854;7.944;2023-08-12T11:49:15;3.45;;;2.65;;
10246;SDS011;5168;47.854;7.944;2023-08-12T11:51:41;4.93;;;2.85;;
10246;SDS011;5168;47.854;7.944;2023-08-12T11:54:09;3.17;;;2.55;;
10246;SDS011;5168;47.854;7.944;2023-08-12T11:56:35;5.18;;;2.50;;
10246;SDS011;5168;47.854;7.944;2023-08-12T11:59:02;5.25;;;2.60;;
10246;SDS011;5168;47.854;7.944;2023-08-12T12:01:27;3.90;;;2.40;;
10246;SDS011;5168;47.854;7.944;2023-08-12T12:03:54;2.67;;;2.10;;
10246;SDS011;5168;47.854;7.944;2023-08-12T12:06:32;2.47;;;2.28;;
10246;SDS011;5168;47.854;7.944;2023-08-12T12:09:05;5.93;;;2.75;;
10246;SDS011;5168;47.854;7.944;2023-08-12T12:11:34;4.07;;;3.15;;
10246;SDS011;5168;47.854;7.944;2023-08-12T12:14:02;2.72;;;2.28;;
10246;SDS011;5168;47.854;7.944;2023-08-12T12:16:39;3.88;;;2.30;;
10246;SDS011;5168;47.854;7.944;2023-08-12T12:19:18;5.22;;;2.20;;
10246;SDS011;5168;47.854;7.944;2023-08-12T12:21:46;3.95;;;2.40;;
10246;SDS011;5168;47.854;7.944;2023-08-12T12:24:16;2.83;;;2.53;;
10246;SDS011;5168;47.854;7.944;2023-08-12T12:26:43;3.25;;;2.30;;
10246;SDS011;5168;47.854;7.944;2023-08-12T12:29:11;4.00;;;2.63;;
10246;SDS011;5168;47.854;7.944;2023-08-12T12:31:38;4.82;;;2.63;;
10246;SDS011;5168;47.854;7.944;2023-08-12T12:34:05;2.30;;;2.10;;
10246;SDS011;5168;47.854;7.944;2023-08-12T12:36:34;4.80;;;2.70;;
10246;SDS011;5168;47.854;7.944;2023-08-12T12:39:01;3.28;;;2.42;;
10246;SDS011;5168;47.854;7.944;2023-08-12T12:41:27;2.80;;;2.42;;
10246;SDS011;5168;47.854;7.944;2023-08-12T12:43:53;6.35;;;2.67;;
10246;SDS011;5168;47.854;7.944;2023-08-12T12:46:19;4.07;;;2.35;;
10246;SDS011;5168;47.854;7.944;2023-08-12T12:48:45;5.70;;;2.90;;
10246;SDS011;5168;47.854;7.944;2023-08-12T12:51:14;3.90;;;2.72;;
10246;SDS011;5168;47.854;7.944;2023-08-12T12:53:40;4.75;;;2.70;;
10246;SDS011;5168;47.854;7.944;2023-08-12T12:56:06;2.63;;;2.35;;
10246;SDS011;5168;47.854;7.944;2023-08-12T12:58:32;3.28;;;2.50;;
10246;SDS011;5168;47.854;7.944;2023-08-12T13:00:59;3.10;;;2.63;;
10246;SDS011;5168;47.854;7.944;2023-08-12T13:03:25;2.97;;;2.20;;
10246;SDS011;5168;47.854;7.944;2023-08-12T13:05:51;3.33;;;2.50;;
10246;SDS011;5168;47.854;7.944;2023-08-12T13:08:17;3.47;;;2.70;;
10246;SDS011;5168;47.854;7.944;2023-08-12T13:10:42;4.53;;;2.92;;
10246;SDS011;5168;47.854;7.944;2023-08-12T13:13:08;3.45;;;2.90;;
10246;SDS011;5168;47.854;7.944;2023-08-12T13:15:34;4.03;;;2.67;;
10246;SDS011;5168;47.854;7.944;2023-08-12T13:18:00;2.85;;;2.40;;
10246;SDS011;5168;47.854;7.944;2023-08-12T13:20:26;3.75;;;2.75;;
10246;SDS011;5168;47.854;7.944;2023-08-12T13:22:52;4.05;;;2.63;;
10246;SDS011;5168;47.854;7.944;2023-08-12T13:25:17;3.65;;;2.50;;
10246;SDS011;5168;47.854;7.944;2023-08-12T13:27:43;3.40;;;2.75;;
10246;SDS011;5168;47.854;7.944;2023-08-12T13:30:09;2.65;;;2.42;;
10246;SDS011;5168;47.854;7.944;2023-08-12T13:32:36;3.03;;;2.70;;
10246;SDS011;5168;47.854;7.944;2023-08-12T13:35:02;5.75;;;2.60;;
10246;SDS011;5168;47.854;7.944;2023-08-12T13:37:28;4.85;;;2.70;;
10246;SDS011;5168;47.854;7.944;2023-08-12T13:39:54;4.05;;;2.60;;
10246;SDS011;5168;47.854;7.944;2023-08-12T13:42:19;5.60;;;2.70;;
10246;SDS011;5168;47.854;7.944;2023-08-12T13:44:45;3.97;;;3.08;;
10246;SDS011;5168;47.854;7.944;2023-08-12T13:47:11;5.50;;;2.80;;
10246;SDS011;5168;47.854;7.944;2023-08-12T13:49:37;3.10;;;2.80;;
10246;SDS011;5168;47.854;7.944;2023-08-12T13:52:03;3.00;;;2.67;;
10246;SDS011;5168;47.854;7.944;2023-08-12T13:54:28;3.50;;;2.78;;
10246;SDS011;5168;47.854;7.944;2023-08-12T13:56:54;3.78;;;2.47;;
10246;SDS011;5168;47.854;7.944;2023-08-12T13:59:19;3.90;;;2.55;;
10246;SDS011;5168;47.854;7.944;2023-08-12T14:01:45;3.90;;;2.75;;
10246;SDS011;5168;47.854;7.944;2023-08-12T14:04:10;4.43;;;2.78;;
10246;SDS011;5168;47.854;7.944;2023-08-12T14:06:36;4.30;;;2.70;;
10246;SDS011;5168;47.854;7.944;2023-08-12T14:09:02;5.13;;;2.67;;
10246;SDS011;5168;47.854;7.944;2023-08-12T14:11:28;4.82;;;2.90;;
10246;SDS011;5168;47.854;7.944;2023-08-12T14:13:53;7.00;;;2.88;;
10246;SDS011;5168;47.854;7.944;2023-08-12T14:16:21;3.15;;;2.67;;
10246;SDS011;5168;47.854;7.944;2023-08-12T14:18:47;3.53;;;2.72;;
10246;SDS011;5168;47.854;7.944;2023-08-12T14:21:12;3.72;;;2.72;;
10246;SDS011;5168;47.854;7.944;2023-08-12T14:23:38;6.47;;;3.70;;
10246;SDS011;5168;47.854;7.944;2023-08-12T14:26:04;4.60;;;3.17;;
10246;SDS011;5168;47.854;7.944;2023-08-12T14:28:30;3.33;;;2.70;;
10246;SDS011;5168;47.854;7.944;2023-08-12T14:30:55;4.82;;;2.90;;
10246;SDS011;5168;47.854;7.944;2023-08-12T14:33:21;4.65;;;3.08;;
10246;SDS011;5168;47.854;7.944;2023-08-12T14:35:49;4.07;;;3.03;;
10246;SDS011;5168;47.854;7.944;2023-08-12T14:38:16;3.78;;;3.08;;
10246;SDS011;5168;47.854;7.944;2023-08-12T14:40:42;5.28;;;2.88;;
10246;SDS011;5168;47.854;7.944;2023-08-12T14:43:11;4.07;;;2.92;;
10246;SDS011;5168;47.854;7.944;2023-08-12T14:45:37;4.30;;;2.92;;
10246;SDS011;5168;47.854;7.944;2023-08-12T14:48:02;3.35;;;2.80;;
10246;SDS011;5168;47.854;7.944;2023-08-12T14:50:28;4.35;;;2.92;;
10246;SDS011;5168;47.854;7.944;2023-08-12T14:52:54;4.43;;;3.05;;
10246;SDS011;5168;47.854;7.944;2023-08-12T14:55:20;4.28;;;2.70;;
10246;SDS011;5168;47.854;7.944;2023-08-12T14:57:45;6.50;;;2.95;;
10246;SDS011;5168;47.854;7.944;2023-08-12T15:00:11;9.73;;;3.03;;
10246;SDS011;5168;47.854;7.944;2023-08-12T15:02:37;3.38;;;2.75;;
10246;SDS011;5168;47.854;7.944;2023-08-12T15:05:03;5.18;;;3.03;;
10246;SDS011;5168;47.854;7.944;2023-08-12T15:07:29;4.85;;;2.88;;
10246;SDS011;5168;47.854;7.944;2023-08-12T15:09:55;5.45;;;3.20;;
10246;SDS011;5168;47.854;7.944;2023-08-12T15:12:23;4.35;;;2.90;;
10246;SDS011;5168;47.854;7.944;2023-08-12T15:14:49;3.88;;;2.80;;
10246;SDS011;5168;47.854;7.944;2023-08-12T15:17:15;3.35;;;2.35;;